createdAt,value
2022-10-19T00:01:47.180Z,1028.39
2022-10-19T00:03:47.286Z,1028.38
2022-10-19T00:05:47.028Z,1028.37
2022-10-19T00:07:47.047Z,1028.37
2022-10-19T00:09:47.079Z,1028.38
2022-10-19T00:11:47.113Z,1028.36
2022-10-19T00:13:47.100Z,1028.37
2022-10-19T00:15:47.040Z,1028.39
2022-10-19T00:17:47.076Z,1028.39
2022-10-19T00:19:47.047Z,1028.39
2022-10-19T00:21:47.215Z,1028.44
2022-10-19T00:23:47.060Z,1028.39
2022-10-19T00:25:47.044Z,1028.39
2022-10-19T00:27:47.076Z,1028.40
2022-10-19T00:29:47.108Z,1028.40
2022-10-19T00:31:47.152Z,1028.35
2022-10-19T00:33:47.104Z,1028.29
2022-10-19T00:35:47.098Z,1028.29
2022-10-19T00:37:47.071Z,1028.29
2022-10-19T00:39:47.141Z,1028.24
2022-10-19T00:41:47.106Z,1028.29
2022-10-19T00:43:47.134Z,1028.29
2022-10-19T00:46:17.074Z,1028.29
2022-10-19T00:48:17.127Z,1028.31
2022-10-19T00:50:17.068Z,1028.31
2022-10-19T00:52:17.099Z,1028.30
2022-10-19T00:54:17.085Z,1028.30
2022-10-19T00:56:17.074Z,1028.33
2022-10-19T00:58:17.121Z,1028.35
2022-10-19T01:00:17.067Z,1028.34
2022-10-19T01:02:17.097Z,1028.33
2022-10-19T01:04:17.225Z,1028.33
2022-10-19T01:06:17.101Z,1028.35
2022-10-19T01:08:17.077Z,1028.38
2022-10-19T01:10:17.114Z,1028.38
2022-10-19T01:12:17.104Z,1028.39
2022-10-19T01:14:17.098Z,1028.39
2022-10-19T01:16:17.118Z,1028.39
2022-10-19T01:18:17.132Z,1028.39
2022-10-19T01:20:17.108Z,1028.43
2022-10-19T01:22:17.082Z,1028.43
2022-10-19T01:24:17.191Z,1028.39
2022-10-19T01:26:17.129Z,1028.38
2022-10-19T01:28:17.132Z,1028.37
2022-10-19T01:30:17.085Z,1028.32
2022-10-19T01:32:17.127Z,1028.32
2022-10-19T01:34:17.248Z,1028.28
2022-10-19T01:36:17.129Z,1028.30
2022-10-19T01:38:17.125Z,1028.33
2022-10-19T01:40:17.093Z,1028.32
2022-10-19T01:42:17.161Z,1028.32
2022-10-19T01:44:17.177Z,1028.32
2022-10-19T01:46:17.127Z,1028.24
2022-10-19T01:48:17.217Z,1028.22
2022-10-19T01:50:17.276Z,1028.22
2022-10-19T01:52:17.138Z,1028.22
2022-10-19T01:54:17.129Z,1028.32
2022-10-19T01:56:17.142Z,1028.27
2022-10-19T01:58:17.101Z,1028.24
2022-10-19T02:00:17.216Z,1028.24
2022-10-19T02:02:17.123Z,1028.23
2022-10-19T02:04:17.145Z,1028.24
2022-10-19T02:06:17.124Z,1028.18
2022-10-19T02:08:17.120Z,1028.18
2022-10-19T02:10:17.169Z,1028.18
2022-10-19T02:12:17.113Z,1028.12
2022-10-19T02:14:17.128Z,1028.09
2022-10-19T02:16:17.168Z,1028.04
2022-10-19T02:18:17.267Z,1028.02
2022-10-19T02:20:17.168Z,1028.02
2022-10-19T02:22:17.196Z,1027.99
2022-10-19T02:24:17.199Z,1027.96
2022-10-19T02:26:17.187Z,1027.96
2022-10-19T02:28:17.164Z,1027.96
2022-10-19T02:30:17.204Z,1027.91
2022-10-19T02:32:17.228Z,1027.91
2022-10-19T02:34:17.156Z,1027.81
2022-10-19T02:36:17.208Z,1027.81
2022-10-19T02:38:17.376Z,1027.81
2022-10-19T02:40:17.187Z,1027.74
2022-10-19T02:42:17.256Z,1027.74
2022-10-19T02:46:44.733Z,1027.68
2022-10-19T02:48:44.732Z,1027.64
2022-10-19T02:50:44.691Z,1027.64
2022-10-19T02:52:44.838Z,1027.60
2022-10-19T02:54:44.897Z,1027.54
2022-10-19T02:56:44.772Z,1027.49
2022-10-19T02:58:44.677Z,1027.46
2022-10-19T03:00:45.844Z,1027.46
2022-10-19T03:02:44.686Z,1027.47
2022-10-19T03:04:44.859Z,1027.46
2022-10-19T03:06:44.815Z,1027.48
2022-10-19T03:08:44.690Z,1027.48
2022-10-19T03:10:44.712Z,1027.48
2022-10-19T03:12:44.726Z,1027.48
2022-10-19T03:14:44.694Z,1027.51
2022-10-19T03:16:44.764Z,1027.50
2022-10-19T03:18:44.685Z,1027.47
2022-10-19T03:20:44.696Z,1027.47
2022-10-19T03:22:44.863Z,1027.46
2022-10-19T03:24:44.715Z,1027.46
2022-10-19T03:26:44.743Z,1027.45
2022-10-19T03:28:44.835Z,1027.45
2022-10-19T03:30:44.724Z,1027.45
2022-10-19T03:32:44.725Z,1027.42
2022-10-19T03:34:44.755Z,1027.41
2022-10-19T03:36:44.744Z,1027.39
2022-10-19T03:38:44.720Z,1027.39
2022-10-19T03:40:44.758Z,1027.43
2022-10-19T03:42:44.767Z,1027.46
2022-10-19T03:44:44.784Z,1027.48
2022-10-19T03:46:44.737Z,1027.46
2022-10-19T03:48:44.756Z,1027.46
2022-10-19T03:50:44.762Z,1027.46
2022-10-19T03:52:44.813Z,1027.46
2022-10-19T03:54:44.804Z,1027.44
2022-10-19T03:56:44.718Z,1027.44
2022-10-19T03:58:44.735Z,1027.43
2022-10-19T04:00:44.868Z,1027.41
2022-10-19T04:02:44.758Z,1027.39
2022-10-19T04:04:44.750Z,1027.42
2022-10-19T04:06:45.026Z,1027.42
2022-10-19T04:08:44.733Z,1027.36
2022-10-19T04:10:44.800Z,1027.36
2022-10-19T04:12:44.761Z,1027.34
2022-10-19T04:14:56.868Z,1027.32
2022-10-19T04:16:44.765Z,1027.32
2022-10-19T04:18:44.762Z,1027.30
2022-10-19T04:20:44.840Z,1027.27
2022-10-19T04:22:44.767Z,1027.25
2022-10-19T04:24:44.743Z,1027.25
2022-10-19T04:26:44.744Z,1027.29
2022-10-19T04:28:44.873Z,1027.30
2022-10-19T04:31:14.842Z,1027.32
2022-10-19T04:33:14.745Z,1027.32
2022-10-19T04:35:14.779Z,1027.32
2022-10-19T04:37:14.747Z,1027.28
2022-10-19T04:39:15.013Z,1027.32
2022-10-19T04:41:14.785Z,1027.27
2022-10-19T04:43:14.754Z,1027.32
2022-10-19T04:45:14.932Z,1027.32
2022-10-19T04:47:14.772Z,1027.32
2022-10-19T04:49:17.796Z,1027.33
2022-10-19T04:51:14.812Z,1027.32
2022-10-19T04:53:14.828Z,1027.32
2022-10-19T04:55:14.797Z,1027.33
2022-10-19T04:57:14.785Z,1027.35
2022-10-19T04:59:14.813Z,1027.35
2022-10-19T05:01:14.927Z,1027.37
2022-10-19T05:03:14.885Z,1027.37
2022-10-19T05:05:14.814Z,1027.39
2022-10-19T05:07:14.770Z,1027.40
2022-10-19T05:09:14.831Z,1027.42
2022-10-19T05:11:14.808Z,1027.40
2022-10-19T05:13:14.797Z,1027.40
2022-10-19T05:15:14.778Z,1027.40
2022-10-19T05:17:14.803Z,1027.41
2022-10-19T05:19:14.889Z,1027.43
2022-10-19T05:21:14.976Z,1027.41
2022-10-19T05:23:14.786Z,1027.41
2022-10-19T05:25:14.803Z,1027.42
2022-10-19T05:27:14.825Z,1027.45
2022-10-19T05:29:14.840Z,1027.40
2022-10-19T05:31:14.815Z,1027.40
2022-10-19T05:33:14.859Z,1027.43
2022-10-19T05:35:16.450Z,1027.39
2022-10-19T05:37:14.816Z,1027.44
2022-10-19T05:39:14.796Z,1027.39
2022-10-19T05:41:14.796Z,1027.39
2022-10-19T05:43:14.790Z,1027.42
2022-10-19T05:45:14.806Z,1027.44
2022-10-19T05:47:14.841Z,1027.48
2022-10-19T05:49:14.875Z,1027.49
2022-10-19T05:51:14.800Z,1027.49
2022-10-19T05:53:14.853Z,1027.49
2022-10-19T05:55:14.826Z,1027.49
2022-10-19T05:57:14.908Z,1027.47
2022-10-19T05:59:14.822Z,1027.47
2022-10-19T06:01:14.842Z,1027.42
2022-10-19T06:03:14.826Z,1027.44
2022-10-19T06:05:14.848Z,1027.46
2022-10-19T06:07:14.892Z,1027.46
2022-10-19T06:09:14.854Z,1027.46
2022-10-19T06:11:14.839Z,1027.41
2022-10-19T06:13:14.868Z,1027.40
2022-10-19T06:15:14.860Z,1027.36
2022-10-19T06:17:14.873Z,1027.37
2022-10-19T06:19:14.874Z,1027.37
2022-10-19T06:21:14.831Z,1027.39
2022-10-19T06:23:14.833Z,1027.40
2022-10-19T06:25:18.053Z,1027.40
2022-10-19T06:27:14.918Z,1027.40
2022-10-19T06:29:44.895Z,1027.36
2022-10-19T06:31:44.842Z,1027.36
2022-10-19T06:33:45.976Z,1027.36
2022-10-19T06:35:44.816Z,1027.36
2022-10-19T06:37:44.924Z,1027.42
2022-10-19T06:39:45.061Z,1027.43
2022-10-19T06:41:44.996Z,1027.43
2022-10-19T06:43:44.896Z,1027.41
2022-10-19T06:45:44.875Z,1027.42
2022-10-19T06:47:44.885Z,1027.42
2022-10-19T06:49:44.864Z,1027.41
2022-10-19T06:51:44.911Z,1027.41
2022-10-19T06:53:44.838Z,1027.43
2022-10-19T06:55:44.857Z,1027.45
2022-10-19T06:57:45.002Z,1027.44
2022-10-19T06:59:44.846Z,1027.44
2022-10-19T07:01:44.898Z,1027.49
2022-10-19T07:03:44.879Z,1027.50
2022-10-19T07:05:44.867Z,1027.53
2022-10-19T07:07:44.923Z,1027.54
2022-10-19T07:09:44.913Z,1027.54
2022-10-19T07:11:46.166Z,1027.54
2022-10-19T07:13:44.854Z,1027.53
2022-10-19T07:15:44.895Z,1027.53
2022-10-19T07:17:44.877Z,1027.61
2022-10-19T07:19:44.936Z,1027.61
2022-10-19T07:21:44.913Z,1027.56
2022-10-19T07:23:44.961Z,1027.54
2022-10-19T07:25:44.904Z,1027.50
2022-10-19T07:27:44.855Z,1027.50
2022-10-19T07:29:44.886Z,1027.48
2022-10-19T07:31:44.926Z,1027.48
2022-10-19T07:33:44.884Z,1027.35
2022-10-19T07:35:44.857Z,1027.34
2022-10-19T07:37:44.897Z,1027.34
2022-10-19T07:39:44.866Z,1027.35
2022-10-19T07:41:44.919Z,1027.38
2022-10-19T07:43:44.896Z,1027.44
2022-10-19T07:45:44.887Z,1027.46
2022-10-19T07:47:44.877Z,1027.46
2022-10-19T07:49:44.966Z,1027.45
2022-10-19T07:51:44.878Z,1027.44
2022-10-19T07:53:44.879Z,1027.46
2022-10-19T07:55:44.918Z,1027.46
2022-10-19T07:57:45.054Z,1027.46
2022-10-19T07:59:44.896Z,1027.50
2022-10-19T08:01:44.996Z,1027.45
2022-10-19T08:05:44.921Z,1027.46
2022-10-19T08:07:44.998Z,1027.49
2022-10-19T08:09:53.350Z,1027.50
2022-10-19T08:11:44.895Z,1027.57
2022-10-19T08:13:44.935Z,1027.58
2022-10-19T08:15:44.903Z,1027.58
2022-10-19T08:17:44.928Z,1027.58
2022-10-19T08:19:44.903Z,1027.54
2022-10-19T08:21:44.913Z,1027.55
2022-10-19T08:23:44.905Z,1027.57
2022-10-19T08:25:44.945Z,1027.57
2022-10-19T08:27:44.905Z,1027.60
2022-10-19T08:29:44.923Z,1027.63
2022-10-19T08:32:14.935Z,1027.61
2022-10-19T08:34:14.907Z,1027.61
2022-10-19T08:36:14.937Z,1027.60
2022-10-19T08:38:14.945Z,1027.60
2022-10-19T08:40:14.907Z,1027.64
2022-10-19T08:42:14.948Z,1027.60
2022-10-19T08:44:14.972Z,1027.60
2022-10-19T08:46:14.902Z,1027.56
2022-10-19T08:48:14.930Z,1027.56
2022-10-19T08:50:14.914Z,1027.54
2022-10-19T08:52:14.969Z,1027.48
2022-10-19T08:54:14.917Z,1027.48
2022-10-19T08:56:22.075Z,1027.48
2022-10-19T08:58:14.910Z,1027.46
2022-10-19T09:00:14.970Z,1027.45
2022-10-19T09:02:14.987Z,1027.45
2022-10-19T09:04:15.003Z,1027.45
2022-10-19T09:06:14.931Z,1027.45
2022-10-19T09:08:17.787Z,1027.45
2022-10-19T09:10:14.980Z,1027.47
2022-10-19T09:12:14.976Z,1027.47
2022-10-19T09:14:14.968Z,1027.47
2022-10-19T09:16:15.072Z,1027.49
2022-10-19T09:18:15.054Z,1027.49
2022-10-19T09:20:14.985Z,1027.54
2022-10-19T09:22:14.974Z,1027.54
2022-10-19T09:24:14.950Z,1027.57
2022-10-19T09:26:15.049Z,1027.57
2022-10-19T09:28:15.000Z,1027.53
2022-10-19T09:30:15.032Z,1027.53
2022-10-19T09:32:15.075Z,1027.53
2022-10-19T09:34:15.009Z,1027.47
2022-10-19T09:36:22.590Z,1027.45
2022-10-19T09:38:14.995Z,1027.46
2022-10-19T09:40:14.949Z,1027.46
2022-10-19T09:42:14.959Z,1027.42
2022-10-19T09:44:15.004Z,1027.41
2022-10-19T09:46:20.134Z,1027.42
2022-10-19T09:48:15.045Z,1027.44
2022-10-19T09:50:15.055Z,1027.44
2022-10-19T09:52:14.963Z,1027.42
2022-10-19T09:54:15.041Z,1027.42
2022-10-19T09:56:15.071Z,1027.43
2022-10-19T09:58:15.052Z,1027.43
2022-10-19T10:02:32.648Z,1027.45
2022-10-19T10:04:32.339Z,1027.40
2022-10-19T10:06:32.376Z,1027.42
2022-10-19T10:08:32.446Z,1027.42
2022-10-19T10:10:32.411Z,1027.39
2022-10-19T10:12:32.645Z,1027.37
2022-10-19T10:14:32.408Z,1027.31
2022-10-19T10:16:32.338Z,1027.29
2022-10-19T10:18:32.366Z,1027.29
2022-10-19T10:20:32.372Z,1027.27
2022-10-19T10:22:32.644Z,1027.21
2022-10-19T10:24:32.413Z,1027.22
2022-10-19T10:26:32.423Z,1027.20
2022-10-19T10:28:32.378Z,1027.20
2022-10-19T10:30:32.370Z,1027.19
2022-10-19T10:32:32.701Z,1027.16
2022-10-19T10:34:45.931Z,1027.13
2022-10-19T10:36:32.352Z,1027.13
2022-10-19T10:38:32.366Z,1027.11
2022-10-19T10:40:32.410Z,1027.11
2022-10-19T10:42:32.638Z,1027.05
2022-10-19T10:44:32.444Z,1027.01
2022-10-19T10:46:32.414Z,1027.01
2022-10-19T10:48:32.478Z,1026.93
2022-10-19T10:50:32.382Z,1026.97
2022-10-19T10:52:32.681Z,1026.95
2022-10-19T10:54:32.396Z,1026.94
2022-10-19T10:56:32.438Z,1026.94
2022-10-19T10:58:32.400Z,1026.85
2022-10-19T11:00:32.385Z,1026.76
2022-10-19T11:02:32.414Z,1026.75
2022-10-19T11:04:32.425Z,1026.75
2022-10-19T11:06:32.394Z,1026.67
2022-10-19T11:08:32.502Z,1026.69
2022-10-19T11:10:32.425Z,1026.68
2022-10-19T11:12:35.029Z,1026.68
2022-10-19T11:14:32.428Z,1026.68
2022-10-19T11:16:32.385Z,1026.60
2022-10-19T11:18:32.443Z,1026.65
2022-10-19T11:20:32.445Z,1026.65
2022-10-19T11:22:32.695Z,1026.49
2022-10-19T11:24:32.470Z,1026.49
2022-10-19T11:26:32.537Z,1026.49
2022-10-19T11:28:32.401Z,1026.51
2022-10-19T11:30:32.466Z,1026.50
2022-10-19T11:32:32.746Z,1026.50
2022-10-19T11:34:32.520Z,1026.56
2022-10-19T11:36:32.518Z,1026.53
2022-10-19T11:38:32.529Z,1026.47
2022-10-19T11:40:32.542Z,1026.46
2022-10-19T11:42:32.515Z,1026.46
2022-10-19T11:44:32.464Z,1026.48
2022-10-19T11:46:32.421Z,1026.45
2022-10-19T11:49:02.473Z,1026.34
2022-10-19T11:51:16.774Z,1026.30
2022-10-19T11:53:02.489Z,1026.29
2022-10-19T11:55:02.551Z,1026.27
2022-10-19T11:57:05.509Z,1026.27
2022-10-19T11:59:02.629Z,1026.21
2022-10-19T12:01:02.478Z,1026.21
2022-10-19T12:03:03.922Z,1026.07
2022-10-19T12:05:02.449Z,1026.07
2022-10-19T12:07:02.455Z,1025.99
2022-10-19T12:09:02.460Z,1026.00
2022-10-19T12:11:02.592Z,1025.99
2022-10-19T12:13:02.548Z,1025.92
2022-10-19T12:15:02.502Z,1025.92
2022-10-19T12:17:02.670Z,1025.92
2022-10-19T12:19:02.503Z,1025.85
2022-10-19T12:21:02.618Z,1025.87
2022-10-19T12:23:02.551Z,1025.82
2022-10-19T12:25:02.524Z,1025.82
2022-10-19T12:27:02.458Z,1025.75
2022-10-19T12:29:02.491Z,1025.69
2022-10-19T12:31:02.524Z,1025.68
2022-10-19T12:33:02.593Z,1025.68
2022-10-19T12:35:02.519Z,1025.66
2022-10-19T12:37:02.469Z,1025.61
2022-10-19T12:39:02.550Z,1025.64
2022-10-19T12:41:02.493Z,1025.64
2022-10-19T12:43:02.569Z,1025.64
2022-10-19T12:45:02.657Z,1025.48
2022-10-19T12:47:02.703Z,1025.51
2022-10-19T12:49:02.459Z,1025.50
2022-10-19T12:51:02.515Z,1025.46
2022-10-19T12:53:02.503Z,1025.46
2022-10-19T12:55:02.553Z,1025.43
2022-10-19T12:57:02.542Z,1025.45
2022-10-19T12:59:02.516Z,1025.41
2022-10-19T13:01:02.593Z,1025.41
2022-10-19T13:03:02.501Z,1025.41
2022-10-19T13:05:02.562Z,1025.41
2022-10-19T13:07:02.518Z,1025.33
2022-10-19T13:09:02.544Z,1025.34
2022-10-19T13:11:02.490Z,1025.34
2022-10-19T13:13:02.542Z,1025.35
2022-10-19T13:15:02.499Z,1025.35
2022-10-19T13:17:02.509Z,1025.35
2022-10-19T13:19:02.480Z,1025.32
2022-10-19T13:21:03.694Z,1025.32
2022-10-19T13:23:02.529Z,1025.32
2022-10-19T13:25:05.814Z,1025.29
2022-10-19T13:27:02.510Z,1025.34
2022-10-19T13:29:02.511Z,1025.23
2022-10-19T13:31:06.169Z,1025.23
2022-10-19T13:33:02.669Z,1025.20
2022-10-19T13:35:02.572Z,1025.15
2022-10-19T13:37:02.572Z,1025.09
2022-10-19T13:39:02.617Z,1025.09
2022-10-19T13:41:02.547Z,1025.06
2022-10-19T13:43:02.593Z,1025.01
2022-10-19T13:45:02.544Z,1025.04
2022-10-19T13:47:02.505Z,1025.04
2022-10-19T13:49:02.680Z,1025.04
2022-10-19T13:51:02.538Z,1025.00
2022-10-19T13:53:32.559Z,1024.97
2022-10-19T13:55:32.522Z,1024.95
2022-10-19T13:57:32.755Z,1024.96
2022-10-19T13:59:32.607Z,1024.96
2022-10-19T14:01:32.581Z,1024.99
2022-10-19T14:03:32.569Z,1024.99
2022-10-19T14:05:32.593Z,1024.93
2022-10-19T14:07:32.788Z,1024.93
2022-10-19T14:09:32.583Z,1024.90
2022-10-19T14:11:32.583Z,1024.87
2022-10-19T14:13:32.646Z,1024.88
2022-10-19T14:15:32.614Z,1024.83
2022-10-19T14:17:32.981Z,1024.83
2022-10-19T14:19:32.705Z,1024.87
2022-10-19T14:21:32.668Z,1024.89
2022-10-19T14:23:32.624Z,1024.89
2022-10-19T14:25:32.821Z,1024.91
2022-10-19T14:27:32.964Z,1024.91
2022-10-19T14:29:32.733Z,1024.92
2022-10-19T14:31:32.693Z,1024.84
2022-10-19T14:33:32.675Z,1024.75
2022-10-19T14:35:32.557Z,1024.75
2022-10-19T14:37:32.924Z,1024.74
2022-10-19T14:39:32.638Z,1024.68
2022-10-19T14:41:32.555Z,1024.67
2022-10-19T14:43:32.656Z,1024.67
2022-10-19T14:45:32.625Z,1024.67
2022-10-19T14:47:32.600Z,1024.63
2022-10-19T14:49:32.561Z,1024.61
2022-10-19T14:51:32.568Z,1024.58
2022-10-19T14:53:32.612Z,1024.50
2022-10-19T14:55:32.645Z,1024.50
2022-10-19T14:57:32.954Z,1024.49
2022-10-19T14:59:32.774Z,1024.48
2022-10-19T15:01:32.714Z,1024.44
2022-10-19T15:03:32.674Z,1024.44
2022-10-19T15:05:32.659Z,1024.38
2022-10-19T15:07:32.786Z,1024.34
2022-10-19T15:09:37.340Z,1024.28
2022-10-19T15:11:32.658Z,1024.30
2022-10-19T15:13:32.624Z,1024.30
2022-10-19T15:15:32.703Z,1024.27
2022-10-19T15:17:32.657Z,1024.31
2022-10-19T15:19:32.709Z,1024.36
2022-10-19T15:21:33.590Z,1024.36
2022-10-19T15:23:32.742Z,1024.36
2022-10-19T15:25:32.642Z,1024.36
2022-10-19T15:27:32.657Z,1024.29
2022-10-19T15:29:32.670Z,1024.30
2022-10-19T15:31:32.670Z,1024.30
2022-10-19T15:33:32.734Z,1024.30
2022-10-19T15:35:32.720Z,1024.28
2022-10-19T15:37:32.691Z,1024.23
2022-10-19T15:39:39.726Z,1024.18
2022-10-19T15:41:32.648Z,1024.18
2022-10-19T15:43:32.697Z,1024.17
2022-10-19T15:45:32.691Z,1024.16
2022-10-19T15:47:32.974Z,1024.10
2022-10-19T15:49:32.733Z,1024.14
2022-10-19T15:51:32.719Z,1024.14
2022-10-19T15:54:02.765Z,1024.13
2022-10-19T15:58:02.661Z,1024.15
2022-10-19T16:00:02.673Z,1024.17
2022-10-19T16:02:02.789Z,1024.15
2022-10-19T16:04:02.715Z,1024.15
2022-10-19T16:06:02.734Z,1024.15
2022-10-19T16:08:02.742Z,1024.11
2022-10-19T16:10:02.775Z,1024.06
2022-10-19T16:12:02.692Z,1024.01
2022-10-19T16:14:02.664Z,1024.01
2022-10-19T16:16:10.600Z,1024.03
2022-10-19T16:18:02.634Z,1023.99
2022-10-19T16:20:02.766Z,1023.95
2022-10-19T16:22:02.842Z,1023.96
2022-10-19T16:24:02.768Z,1023.96
2022-10-19T16:26:02.696Z,1023.92
2022-10-19T16:28:02.669Z,1023.90
2022-10-19T16:30:02.708Z,1023.84
2022-10-19T16:32:02.699Z,1023.84
2022-10-19T16:34:02.854Z,1023.84
2022-10-19T16:36:02.792Z,1023.80
2022-10-19T16:38:02.675Z,1023.78
2022-10-19T16:40:02.730Z,1023.78
2022-10-19T16:42:02.692Z,1023.78
2022-10-19T16:44:02.629Z,1023.77
2022-10-19T16:46:02.811Z,1023.77
2022-10-19T16:48:02.763Z,1023.82
2022-10-19T16:50:02.792Z,1023.84
2022-10-19T16:52:14.763Z,1023.84
2022-10-19T16:54:14.459Z,1023.92
2022-10-19T16:56:14.530Z,1023.88
2022-10-19T16:58:14.463Z,1023.87
2022-10-19T17:00:14.470Z,1023.87
2022-10-19T17:02:14.502Z,1023.87
2022-10-19T17:04:14.523Z,1023.86
2022-10-19T17:06:14.538Z,1023.88
2022-10-19T17:08:14.570Z,1023.90
2022-10-19T17:10:14.604Z,1023.90
2022-10-19T17:12:14.607Z,1023.93
2022-10-19T17:14:14.500Z,1023.97
2022-10-19T17:16:14.482Z,1023.98
2022-10-19T17:18:14.544Z,1024.04
2022-10-19T17:20:14.607Z,1024.04
2022-10-19T17:22:14.574Z,1024.04
2022-10-19T17:24:18.440Z,1024.04
2022-10-19T17:26:14.552Z,1024.04
2022-10-19T17:28:14.484Z,1023.99
2022-10-19T17:30:14.607Z,1023.99
2022-10-19T17:32:14.654Z,1024.02
2022-10-19T17:34:14.558Z,1024.02
2022-10-19T17:36:14.572Z,1024.04
2022-10-19T17:38:14.594Z,1024.04
2022-10-19T17:40:14.596Z,1024.16
2022-10-19T17:42:14.603Z,1024.16
2022-10-19T17:44:14.672Z,1024.13
2022-10-19T17:46:14.628Z,1024.11
2022-10-19T17:48:14.640Z,1024.11
2022-10-19T17:50:14.516Z,1024.09
2022-10-19T17:52:14.551Z,1024.08
2022-10-19T17:54:14.581Z,1024.04
2022-10-19T17:56:14.676Z,1024.02
2022-10-19T17:58:14.592Z,1024.02
2022-10-19T18:00:14.674Z,1024.04
2022-10-19T18:02:14.626Z,1023.98
2022-10-19T18:04:14.559Z,1024.07
2022-10-19T18:06:14.591Z,1024.07
2022-10-19T18:08:14.573Z,1024.07
2022-10-19T18:10:14.585Z,1024.09
2022-10-19T18:12:14.638Z,1024.05
2022-10-19T18:14:14.675Z,1024.00
2022-10-19T18:16:14.637Z,1024.00
2022-10-19T18:18:14.707Z,1024.05
2022-10-19T18:20:14.653Z,1024.04
2022-10-19T18:22:14.555Z,1024.07
2022-10-19T18:24:15.468Z,1024.01
2022-10-19T18:26:14.594Z,1024.01
2022-10-19T18:28:14.632Z,1023.97
2022-10-19T18:30:14.684Z,1023.97
2022-10-19T18:32:44.651Z,1023.96
2022-10-19T18:34:44.615Z,1023.95
2022-10-19T18:36:44.636Z,1023.94
2022-10-19T18:38:44.607Z,1023.94
2022-10-19T18:40:44.614Z,1023.93
2022-10-19T18:42:44.616Z,1023.89
2022-10-19T18:44:44.779Z,1023.75
2022-10-19T18:46:44.651Z,1023.75
2022-10-19T18:48:44.661Z,1023.75
2022-10-19T18:50:44.540Z,1023.75
2022-10-19T18:52:44.593Z,1023.75
2022-10-19T18:54:44.648Z,1023.91
2022-10-19T18:56:44.625Z,1023.90
2022-10-19T18:58:44.633Z,1023.90
2022-10-19T19:00:45.713Z,1023.86
2022-10-19T19:02:46.992Z,1023.83
2022-10-19T19:04:44.714Z,1023.84
2022-10-19T19:06:44.620Z,1023.84
2022-10-19T19:10:44.668Z,1023.82
2022-10-19T19:12:44.559Z,1023.70
2022-10-19T19:14:44.673Z,1023.75
2022-10-19T19:16:44.580Z,1023.75
2022-10-19T19:18:44.716Z,1023.68
2022-10-19T19:20:44.580Z,1023.61
2022-10-19T19:22:44.648Z,1023.65
2022-10-19T19:24:44.623Z,1023.58
2022-10-19T19:26:44.650Z,1023.58
2022-10-19T19:28:46.376Z,1023.58
2022-10-19T19:30:44.701Z,1023.46
2022-10-19T19:32:44.581Z,1023.49
2022-10-19T19:34:44.701Z,1023.42
2022-10-19T19:36:44.641Z,1023.42
2022-10-19T19:38:44.618Z,1023.34
2022-10-19T19:40:44.668Z,1023.33
2022-10-19T19:42:44.571Z,1023.35
2022-10-19T19:44:44.696Z,1023.35
2022-10-19T19:46:44.580Z,1023.28
2022-10-19T19:48:44.712Z,1023.30
2022-10-19T19:50:44.708Z,1023.30
2022-10-19T19:52:44.665Z,1023.34
2022-10-19T19:54:44.657Z,1023.34
2022-10-19T19:56:44.642Z,1023.34
2022-10-19T19:58:44.706Z,1023.30
2022-10-19T20:00:44.670Z,1023.32
2022-10-19T20:02:44.677Z,1023.30
2022-10-19T20:04:44.711Z,1023.30
2022-10-19T20:06:44.657Z,1023.37
2022-10-19T20:08:44.700Z,1023.37
2022-10-19T20:10:44.669Z,1023.37
2022-10-19T20:12:44.682Z,1023.37
2022-10-19T20:14:44.684Z,1023.43
2022-10-19T20:16:44.705Z,1023.47
2022-10-19T20:18:44.746Z,1023.44
2022-10-19T20:20:44.661Z,1023.49
2022-10-19T20:22:44.645Z,1023.49
2022-10-19T20:24:44.660Z,1023.46
2022-10-19T20:27:14.725Z,1023.50
2022-10-19T20:29:14.660Z,1023.54
2022-10-19T20:31:14.798Z,1023.51
2022-10-19T20:33:14.725Z,1023.51
2022-10-19T20:35:14.625Z,1023.49
2022-10-19T20:37:14.661Z,1023.57
2022-10-19T20:39:14.637Z,1023.50
2022-10-19T20:41:14.764Z,1023.50
2022-10-19T20:43:14.713Z,1023.37
2022-10-19T20:45:14.726Z,1023.30
2022-10-19T20:47:14.747Z,1023.30
2022-10-19T20:49:14.740Z,1023.30
2022-10-19T20:51:14.625Z,1023.30
2022-10-19T20:53:14.626Z,1023.25
2022-10-19T20:55:14.834Z,1023.22
2022-10-19T20:57:14.938Z,1023.23
2022-10-19T20:59:14.727Z,1023.20
2022-10-19T21:01:14.816Z,1023.20
2022-10-19T21:03:14.753Z,1023.16
2022-10-19T21:05:14.701Z,1023.16
2022-10-19T21:07:14.691Z,1023.07
2022-10-19T21:09:14.771Z,1023.07
2022-10-19T21:11:14.718Z,1023.09
2022-10-19T21:13:14.728Z,1023.06
2022-10-19T21:15:14.753Z,1023.00
2022-10-19T21:17:14.763Z,1023.00
2022-10-19T21:19:14.735Z,1023.00
2022-10-19T21:21:14.664Z,1023.01
2022-10-19T21:23:14.709Z,1022.97
2022-10-19T21:25:14.705Z,1022.96
2022-10-19T21:27:14.750Z,1022.98
2022-10-19T21:29:14.750Z,1022.98
2022-10-19T21:31:14.738Z,1022.98
2022-10-19T21:33:14.757Z,1022.81
2022-10-19T21:35:14.682Z,1022.77
2022-10-19T21:37:14.772Z,1022.77
2022-10-19T21:39:14.707Z,1022.77
2022-10-19T21:41:14.870Z,1022.78
2022-10-19T21:43:14.752Z,1022.75
2022-10-19T21:47:14.748Z,1022.78
2022-10-19T21:49:14.776Z,1022.82
2022-10-19T21:51:14.677Z,1022.82
2022-10-19T21:53:14.805Z,1022.80
2022-10-19T21:55:14.710Z,1022.83
2022-10-19T21:57:14.738Z,1022.83
2022-10-19T21:59:14.708Z,1022.84
2022-10-19T22:01:14.838Z,1022.82
2022-10-19T22:05:14.713Z,1022.90
2022-10-19T22:07:14.792Z,1022.90
2022-10-19T22:09:14.809Z,1022.93
2022-10-19T22:11:14.701Z,1022.93
2022-10-19T22:13:14.701Z,1022.94
2022-10-19T22:15:14.689Z,1022.94
2022-10-19T22:17:14.693Z,1022.89
2022-10-19T22:19:14.698Z,1022.87
2022-10-19T22:21:14.695Z,1022.91
2022-10-19T22:23:44.713Z,1022.89
2022-10-19T22:25:44.718Z,1022.83
2022-10-19T22:27:44.686Z,1022.77
2022-10-19T22:29:44.742Z,1022.77
2022-10-19T22:31:44.670Z,1022.73
2022-10-19T22:33:44.673Z,1022.74
2022-10-19T22:35:44.681Z,1022.71
2022-10-19T22:37:44.697Z,1022.68
2022-10-19T22:39:44.666Z,1022.68
2022-10-19T22:41:44.733Z,1022.61
2022-10-19T22:43:44.669Z,1022.56
2022-10-19T22:45:44.751Z,1022.51
2022-10-19T22:47:44.734Z,1022.51
2022-10-19T22:49:44.711Z,1022.43
2022-10-19T22:51:44.710Z,1022.43
2022-10-19T22:53:44.691Z,1022.42
2022-10-19T22:55:44.714Z,1022.37
2022-10-19T22:57:44.695Z,1022.37
2022-10-19T22:59:44.680Z,1022.33
2022-10-19T23:01:44.724Z,1022.33
2022-10-19T23:03:44.780Z,1022.33
2022-10-19T23:05:44.716Z,1022.28
2022-10-19T23:07:44.686Z,1022.28
2022-10-19T23:09:44.706Z,1022.32
2022-10-19T23:11:44.702Z,1022.33
2022-10-19T23:13:44.753Z,1022.40
2022-10-19T23:15:44.692Z,1022.40
2022-10-19T23:17:44.741Z,1022.39
2022-10-19T23:19:44.827Z,1022.38
2022-10-19T23:21:44.778Z,1022.32
2022-10-19T23:23:44.752Z,1022.26
2022-10-19T23:25:44.787Z,1022.26
2022-10-19T23:27:44.749Z,1022.29
2022-10-19T23:29:44.812Z,1022.29
2022-10-19T23:31:44.743Z,1022.29
2022-10-19T23:33:44.724Z,1022.17
2022-10-19T23:35:44.749Z,1022.17
2022-10-19T23:37:44.760Z,1022.09
2022-10-19T23:39:44.729Z,1022.12
2022-10-19T23:41:44.868Z,1022.07
2022-10-19T23:43:44.724Z,1022.07
2022-10-19T23:45:44.779Z,1022.09
2022-10-19T23:47:44.820Z,1022.12
2022-10-19T23:49:44.814Z,1022.17
2022-10-19T23:51:44.816Z,1022.14
2022-10-19T23:53:44.957Z,1022.14
2022-10-19T23:55:44.740Z,1022.16
2022-10-19T23:57:44.808Z,1022.12
2022-10-19T23:59:44.784Z,1022.01
